Time;durP1;ratioP1;P1;durP2;ratioP2;P2;SDS_P1;SDS_P2;PMS_P1;PMS_P2;Temp;Humidity;BMP_temperature;BMP_pressure;BME280_temperature;BME280_humidity;BME280_pressure;Samples;Min_cycle;Max_cycle;Signal;HPM_P1;HPM_P2
2020/12/01 00:03:07;;;;;;;0.80;0.57;;;10.90;99.90;;;;;;10328267;28;20282;-80
2020/12/01 00:08:09;;;;;;;4.17;2.10;;;11.00;99.90;;;;;;10328023;28;20200;-80
2020/12/01 00:13:13;;;;;;;3.33;1.00;;;10.90;99.90;;;;;;10327697;28;20278;-79
2020/12/01 00:18:16;;;;;;;2.13;1.20;;;11.00;99.90;;;;;;10327796;28;20546;-81
2020/12/01 00:23:18;;;;;;;2.13;1.93;;;11.00;99.90;;;;;;10357899;28;20277;-81
2020/12/01 00:28:21;;;;;;;3.50;3.20;;;11.10;99.90;;;;;;10367530;28;20201;-80
2020/12/01 00:33:24;;;;;;;5.47;2.10;;;11.00;99.90;;;;;;10366583;28;20210;-80
2020/12/01 00:38:26;;;;;;;1.00;0.80;;;11.00;99.90;;;;;;10367673;28;20286;-80
2020/12/01 00:43:30;;;;;;;5.40;1.03;;;10.90;99.90;;;;;;10367245;28;20205;-81
2020/12/01 00:48:32;;;;;;;2.17;1.37;;;10.80;99.90;;;;;;10369988;28;20205;-81
2020/12/01 00:53:35;;;;;;;1.63;1.53;;;10.70;99.90;;;;;;10375450;28;20214;-80
2020/12/01 00:58:38;;;;;;;6.17;1.67;;;10.80;99.90;;;;;;10358090;28;20686;-80
2020/12/01 01:03:41;;;;;;;1.53;1.40;;;10.70;99.90;;;;;;10423523;22;20234;-78
2020/12/01 01:08:44;;;;;;;5.20;1.53;;;10.70;99.90;;;;;;10416012;28;20233;-76
2020/12/01 01:13:48;;;;;;;1.97;1.33;;;10.50;99.90;;;;;;10412006;28;20621;-76
2020/12/01 01:18:52;;;;;;;2.70;1.67;;;10.50;99.90;;;;;;10383497;28;20202;-76
2020/12/01 01:23:54;;;;;;;1.70;1.60;;;10.40;99.90;;;;;;10374257;28;20293;-76
2020/12/01 01:28:58;;;;;;;0.43;0.43;;;10.40;99.90;;;;;;10374407;28;20206;-76
2020/12/01 01:34:00;;;;;;;7.67;1.83;;;10.20;99.90;;;;;;10399372;28;20224;-76
2020/12/01 01:39:06;;;;;;;4.83;1.33;;;10.40;99.90;;;;;;10414720;28;20206;-77
2020/12/01 01:44:25;;;;;;;1.53;1.00;;;10.40;99.90;;;;;;10414468;28;20190;-77
2020/12/01 01:49:35;;;;;;;0.40;0.30;;;10.20;99.90;;;;;;10414720;28;20205;-77
2020/12/01 01:54:38;;;;;;;2.10;1.00;;;10.20;99.90;;;;;;10379308;28;20324;-77
2020/12/01 01:59:45;;;;;;;1.90;1.00;;;10.20;99.90;;;;;;10413181;28;20230;-77
2020/12/01 02:04:48;;;;;;;1.97;1.03;;;10.10;99.90;;;;;;10413632;28;20209;-77
2020/12/01 02:09:54;;;;;;;3.53;1.80;;;10.10;99.90;;;;;;10413365;28;20647;-77
2020/12/01 02:15:01;;;;;;;1.20;1.13;;;10.10;99.90;;;;;;10395874;28;20582;-77
2020/12/01 02:20:10;;;;;;;0.83;0.83;;;10.00;99.90;;;;;;10413155;28;20204;-77
2020/12/01 02:25:14;;;;;;;0.93;0.93;;;10.00;99.90;;;;;;10413176;28;20591;-76
2020/12/01 02:30:18;;;;;;;1.53;1.13;;;9.80;99.90;;;;;;10412794;28;20844;-77
2020/12/01 02:35:21;;;;;;;0.20;0.20;;;10.00;99.90;;;;;;10412262;28;20225;-76
2020/12/01 02:40:23;;;;;;;0.70;0.70;;;9.90;99.90;;;;;;10412825;28;20217;-78
2020/12/01 02:45:27;;;;;;;1.17;1.07;;;9.80;99.90;;;;;;10388095;28;20253;-77
2020/12/01 02:50:29;;;;;;;0.27;0.23;;;10.00;99.90;;;;;;10371020;28;20207;-76
2020/12/01 02:55:40;;;;;;;2.73;1.00;;;9.80;99.90;;;;;;10402902;28;20225;-76
2020/12/01 03:00:44;;;;;;;0.67;0.63;;;9.80;99.90;;;;;;10402018;28;20556;-77
2020/12/01 03:05:46;;;;;;;4.17;0.87;;;9.80;99.90;;;;;;10353250;28;20598;-77
2020/12/01 03:10:49;;;;;;;0.23;0.23;;;9.80;99.90;;;;;;10352765;28;20205;-77
2020/12/01 03:15:54;;;;;;;0.50;0.50;;;9.70;99.90;;;;;;10352923;28;20226;-77
2020/12/01 03:20:56;;;;;;;4.20;1.23;;;9.90;99.90;;;;;;10377887;28;20518;-76
2020/12/01 03:26:00;;;;;;;1.63;0.87;;;9.80;99.90;;;;;;10410571;28;20349;-77
2020/12/01 03:31:04;;;;;;;2.07;1.80;;;9.80;99.90;;;;;;10408161;28;20281;-75
2020/12/01 03:36:07;;;;;;;0.33;0.33;;;9.80;99.90;;;;;;10409988;28;20320;-77
2020/12/01 03:41:10;;;;;;;1.90;0.83;;;9.80;99.90;;;;;;10399009;28;20199;-75
2020/12/01 03:46:14;;;;;;;1.77;1.33;;;9.80;99.90;;;;;;10389978;28;20202;-77
2020/12/01 03:51:16;;;;;;;1.83;1.33;;;9.80;99.90;;;;;;10406854;28;20563;-76
2020/12/01 03:56:19;;;;;;;0.50;0.50;;;9.70;99.90;;;;;;10368598;28;20225;-76
2020/12/01 04:01:23;;;;;;;1.67;1.57;;;9.70;99.90;;;;;;10351562;28;20556;-77
2020/12/01 04:06:25;;;;;;;3.30;1.97;;;9.60;99.90;;;;;;10334974;28;20282;-81
2020/12/01 04:11:28;;;;;;;4.43;2.20;;;9.60;99.90;;;;;;10385080;28;20256;-76
2020/12/01 04:16:31;;;;;;;0.53;0.53;;;9.60;99.90;;;;;;10408635;28;20232;-78
2020/12/01 04:21:34;;;;;;;0.60;0.60;;;9.50;99.90;;;;;;10379355;28;20199;-77
2020/12/01 04:26:37;;;;;;;1.13;1.07;;;9.50;99.90;;;;;;10367617;28;20199;-77
2020/12/01 04:31:41;;;;;;;1.83;0.80;;;9.50;99.90;;;;;;10373644;28;20281;-77
2020/12/01 04:36:45;;;;;;;0.67;0.67;;;9.40;99.90;;;;;;10390996;28;20372;-76
2020/12/01 04:41:48;;;;;;;2.53;1.03;;;9.40;99.90;;;;;;10409402;28;20202;-77
2020/12/01 04:46:52;;;;;;;1.97;1.63;;;9.40;99.90;;;;;;10408220;28;20281;-77
2020/12/01 04:52:23;;;;;;;1.30;1.20;;;9.40;99.90;;;;;;10408368;28;20201;-78
2020/12/01 04:57:45;;;;;;;7.20;1.13;;;9.30;99.90;;;;;;10408395;28;20304;-77
2020/12/01 05:03:16;;;;;;;1.73;1.27;;;9.30;99.90;;;;;;10409099;28;20257;-80
2020/12/01 05:08:38;;;;;;;1.70;1.60;;;9.30;99.90;;;;;;10408286;28;20221;-77
2020/12/01 05:13:41;;;;;;;6.67;2.17;;;9.30;99.90;;;;;;10387732;28;20558;-78
2020/12/01 05:18:45;;;;;;;4.53;2.43;;;9.30;99.90;;;;;;10361626;28;20297;-76
2020/12/01 05:23:49;;;;;;;2.47;1.93;;;9.30;99.90;;;;;;10389710;28;20200;-76
2020/12/01 05:28:54;;;;;;;1.13;0.83;;;9.30;99.90;;;;;;10407849;28;20643;-76
2020/12/01 05:34:02;;;;;;;1.90;1.23;;;9.30;99.90;;;;;;10407182;28;20682;-79
2020/12/01 05:39:07;;;;;;;1.43;1.33;;;9.30;99.90;;;;;;10415138;28;20206;-79
2020/12/01 05:44:17;;;;;;;1.77;1.13;;;9.30;99.90;;;;;;10414454;28;20202;-78
2020/12/01 05:49:34;;;;;;;5.23;2.73;;;9.30;99.90;;;;;;10415038;28;20221;-77
2020/12/01 05:54:40;;;;;;;2.40;2.13;;;9.30;99.90;;;;;;10396609;28;20769;-77
2020/12/01 05:59:52;;;;;;;5.27;1.50;;;9.20;99.90;;;;;;10414585;28;20296;-77
2020/12/01 06:04:56;;;;;;;1.40;0.87;;;9.30;99.90;;;;;;10380555;28;20631;-77
2020/12/01 06:10:18;;;;;;;0.40;0.30;;;9.20;99.90;;;;;;10398418;28;20282;-78
2020/12/01 06:15:21;;;;;;;0.67;0.60;;;9.30;99.90;;;;;;10413924;28;20628;-80
2020/12/01 06:20:29;;;;;;;2.27;0.87;;;9.10;99.90;;;;;;10396095;28;20707;-78
2020/12/01 06:26:03;;;;;;;3.53;1.37;;;9.10;99.90;;;;;;10411920;28;20447;-76
2020/12/01 06:31:16;;;;;;;3.70;1.20;;;9.20;99.90;;;;;;10411593;28;20248;-79
2020/12/01 06:37:09;;;;;;;1.13;0.93;;;9.10;99.90;;;;;;10394751;28;20326;-85
2020/12/01 06:42:21;;;;;;;0.87;0.57;;;9.20;99.90;;;;;;10326564;28;20262;-81
2020/12/01 06:47:27;;;;;;;1.30;1.30;;;9.20;99.90;;;;;;10398365;28;20217;-83
2020/12/01 06:52:29;;;;;;;0.87;0.87;;;9.20;99.90;;;;;;10411625;28;20249;-81
2020/12/01 06:57:36;;;;;;;1.00;0.60;;;9.40;99.90;;;;;;10411641;28;20233;-77
2020/12/01 07:02:40;;;;;;;1.43;1.20;;;9.40;99.90;;;;;;10409504;28;20226;-82
2020/12/01 07:07:45;;;;;;;3.47;1.67;;;9.40;99.90;;;;;;10411845;28;20198;-79
2020/12/01 07:12:54;;;;;;;3.00;0.57;;;9.50;99.90;;;;;;10414035;28;20536;-78
2020/12/01 07:18:03;;;;;;;1.13;1.00;;;9.50;99.90;;;;;;10411399;28;20232;-73
2020/12/01 07:23:28;;;;;;;3.53;1.53;;;9.60;99.90;;;;;;10411677;28;20839;-80
2020/12/01 07:28:42;;;;;;;1.90;1.80;;;9.70;99.90;;;;;;10405486;28;20208;-83
2020/12/01 07:33:51;;;;;;;2.13;1.97;;;9.70;99.90;;;;;;10411982;28;20198;-75
2020/12/01 07:39:08;;;;;;;9.00;2.53;;;9.90;99.90;;;;;;10383308;28;20758;-80
2020/12/01 07:44:14;;;;;;;0.20;0.10;;;10.00;99.90;;;;;;10351837;28;20289;-79
2020/12/01 07:49:18;;;;;;;1.33;1.23;;;10.00;99.90;;;;;;10401390;28;20218;-79
2020/12/01 07:54:24;;;;;;;3.00;1.23;;;10.10;99.90;;;;;;10390976;28;20220;-76
2020/12/01 07:59:27;;;;;;;3.33;1.23;;;10.10;99.90;;;;;;10411309;28;20225;-76
2020/12/01 08:04:30;;;;;;;0.30;0.30;;;10.10;99.90;;;;;;10409706;28;20229;-74
2020/12/01 08:09:33;;;;;;;1.03;0.87;;;10.20;99.90;;;;;;10408629;28;20205;-72
2020/12/01 08:14:37;;;;;;;1.23;1.13;;;10.40;99.90;;;;;;10408438;28;20566;-76
2020/12/01 08:19:41;;;;;;;1.03;0.57;;;10.40;99.90;;;;;;10390076;28;20197;-77
2020/12/01 08:24:45;;;;;;;0.47;0.37;;;10.50;99.90;;;;;;10390213;28;20198;-75
2020/12/01 08:29:50;;;;;;;2.40;1.10;;;10.60;99.90;;;;;;10407426;28;20301;-75
2020/12/01 08:35:09;;;;;;;1.80;1.13;;;10.70;99.90;;;;;;10403451;28;20257;-74
2020/12/01 08:40:19;;;;;;;0.93;0.87;;;10.80;99.90;;;;;;10407977;28;20212;-73
2020/12/01 08:50:42;;;;;;;1.27;1.10;;;10.60;99.90;;;;;;10421527;23;20267;-74
2020/12/01 08:55:51;;;;;;;0.77;0.77;;;10.80;99.90;;;;;;10327524;28;20219;-73
2020/12/01 09:00:59;;;;;;;1.53;1.47;;;11.00;99.90;;;;;;10326619;28;20286;-77
2020/12/01 09:06:02;;;;;;;3.30;1.67;;;11.20;99.90;;;;;;10325964;28;20612;-69
2020/12/01 09:11:35;;;;;;;4.30;1.83;;;11.40;99.90;;;;;;10331130;28;20275;-72
2020/12/01 09:16:51;;;;;;;1.90;1.57;;;11.70;99.90;;;;;;10334249;28;20227;-72
2020/12/01 09:22:05;;;;;;;1.17;1.10;;;11.90;99.90;;;;;;10333636;28;20281;-71
2020/12/01 09:27:11;;;;;;;2.73;1.57;;;11.90;99.90;;;;;;10314295;28;20198;-71
2020/12/01 09:32:18;;;;;;;1.47;1.37;;;11.60;99.90;;;;;;10333185;28;20197;-72
2020/12/01 09:37:22;;;;;;;5.90;2.27;;;11.50;99.90;;;;;;10315253;28;20219;-73
2020/12/01 09:42:27;;;;;;;0.60;0.57;;;11.80;99.90;;;;;;10333077;28;20206;-70
2020/12/01 09:47:36;;;;;;;1.13;1.03;;;12.00;99.90;;;;;;10314939;28;20219;-73
2020/12/01 09:52:54;;;;;;;1.23;1.13;;;12.20;99.90;;;;;;10332079;28;20247;-72
2020/12/01 09:58:03;;;;;;;0.50;0.50;;;12.50;99.90;;;;;;10333382;28;20246;-72
2020/12/01 10:08:32;;;;;;;4.57;1.50;;;13.00;99.90;;;;;;10332583;28;20199;-71
2020/12/01 10:13:49;;;;;;;1.90;1.37;;;13.20;99.90;;;;;;10332202;28;20204;-72
2020/12/01 10:34:59;;;;;;;2.57;1.67;;;15.10;99.90;;;;;;10329802;28;20671;-71
2020/12/01 10:40:18;;;;;;;1.90;1.20;;;15.40;99.90;;;;;;10330111;28;20597;-71
2020/12/01 10:45:22;;;;;;;1.63;0.93;;;15.30;99.90;;;;;;10330110;28;20282;-72
2020/12/01 10:50:28;;;;;;;8.13;2.73;;;15.40;99.90;;;;;;10330076;28;20314;-71
2020/12/01 10:55:33;;;;;;;2.07;0.83;;;15.80;99.90;;;;;;10329642;28;20264;-72
2020/12/01 11:00:36;;;;;;;4.40;1.93;;;15.70;99.90;;;;;;10330252;28;20607;-72
2020/12/01 11:05:38;;;;;;;1.07;1.00;;;15.90;99.90;;;;;;10329830;28;20207;-71
2020/12/01 11:10:42;;;;;;;2.63;2.43;;;16.00;99.90;;;;;;10327838;28;20188;-72
2020/12/01 11:15:44;;;;;;;0.93;0.80;;;16.20;99.90;;;;;;10328740;28;20223;-71
2020/12/01 11:20:47;;;;;;;2.10;1.97;;;16.50;99.90;;;;;;10328573;28;20196;-73
2020/12/01 11:25:50;;;;;;;4.17;1.63;;;16.60;99.90;;;;;;10328728;28;20198;-71
2020/12/01 11:30:53;;;;;;;4.73;0.93;;;16.40;99.90;;;;;;10328366;28;20195;-72
2020/12/01 11:35:57;;;;;;;2.73;1.10;;;16.60;99.90;;;;;;10327276;28;20266;-72
2020/12/01 11:41:00;;;;;;;5.07;2.57;;;16.50;99.90;;;;;;10327104;28;20199;-72
2020/12/01 11:46:03;;;;;;;5.50;2.07;;;17.00;99.90;;;;;;10327685;28;20290;-73
2020/12/01 11:51:05;;;;;;;2.67;0.87;;;17.30;99.90;;;;;;10326879;28;20223;-69
2020/12/01 11:56:09;;;;;;;0.70;0.50;;;16.50;99.90;;;;;;10329852;28;20250;-71
2020/12/01 12:01:12;;;;;;;3.53;2.53;;;16.20;99.90;;;;;;10328059;28;20191;-71
2020/12/01 12:06:16;;;;;;;1.90;1.80;;;16.00;99.90;;;;;;10327876;28;20192;-70
2020/12/01 12:11:20;;;;;;;3.57;2.27;;;16.00;99.90;;;;;;10327450;28;20266;-70
2020/12/01 12:16:22;;;;;;;2.07;1.77;;;15.80;99.90;;;;;;10326081;28;20221;-72
2020/12/01 12:21:25;;;;;;;1.10;1.03;;;15.90;99.90;;;;;;10333993;28;20301;-71
2020/12/01 12:26:29;;;;;;;1.13;1.03;;;16.00;99.90;;;;;;10321535;28;20204;-74
2020/12/01 12:31:31;;;;;;;2.37;1.67;;;15.90;99.90;;;;;;10329801;28;20209;-75
2020/12/01 12:36:34;;;;;;;1.70;1.43;;;16.00;99.90;;;;;;10327261;28;20227;-74
2020/12/01 12:41:37;;;;;;;1.60;0.73;;;15.90;99.90;;;;;;10324836;28;20282;-72
2020/12/01 12:46:40;;;;;;;1.07;0.97;;;16.00;99.90;;;;;;10324155;28;20221;-74
2020/12/01 12:51:43;;;;;;;2.93;2.70;;;15.90;99.90;;;;;;10306477;28;20223;-71
2020/12/01 12:56:46;;;;;;;0.80;0.80;;;15.80;99.90;;;;;;10345915;28;20222;-70
2020/12/01 13:01:48;;;;;;;2.07;1.50;;;15.80;99.90;;;;;;10364304;28;20222;-70
2020/12/01 13:06:51;;;;;;;1.43;1.27;;;15.60;99.90;;;;;;10346981;28;20223;-70
2020/12/01 13:11:54;;;;;;;6.73;2.17;;;15.50;99.90;;;;;;10295569;28;20743;-71
2020/12/01 13:16:57;;;;;;;2.27;2.13;;;15.40;99.90;;;;;;10324785;28;20254;-72
2020/12/01 13:22:00;;;;;;;4.70;2.00;;;15.50;99.90;;;;;;10324392;28;20203;-71
2020/12/01 13:27:03;;;;;;;1.20;1.00;;;15.40;99.90;;;;;;10323492;28;20192;-71
2020/12/01 13:32:06;;;;;;;2.97;1.20;;;15.60;99.90;;;;;;10304551;28;20198;-73
2020/12/01 13:37:09;;;;;;;1.00;0.83;;;15.60;99.90;;;;;;10324682;28;20227;-75
2020/12/01 13:42:12;;;;;;;1.63;1.30;;;15.30;99.90;;;;;;10307486;28;20525;-74
2020/12/01 13:47:15;;;;;;;1.47;1.37;;;15.20;99.90;;;;;;10324073;28;20195;-71
2020/12/01 13:52:18;;;;;;;2.47;1.77;;;15.30;99.90;;;;;;10326056;28;20232;-72
2020/12/01 13:57:21;;;;;;;15.77;1.57;;;15.20;99.90;;;;;;10310460;28;20242;-72
2020/12/01 14:02:25;;;;;;;1.10;1.00;;;15.30;99.90;;;;;;10332680;28;20278;-69
2020/12/01 14:07:27;;;;;;;4.73;0.70;;;15.30;99.90;;;;;;10331369;28;20306;-71
2020/12/01 14:12:31;;;;;;;2.27;1.43;;;15.20;99.90;;;;;;10331242;28;20215;-70
2020/12/01 14:17:34;;;;;;;1.17;1.17;;;15.30;99.90;;;;;;10330907;28;20586;-71
2020/12/01 14:22:37;;;;;;;3.17;1.90;;;15.10;99.90;;;;;;10332421;28;20204;-72
2020/12/01 14:27:40;;;;;;;1.13;1.03;;;15.10;99.90;;;;;;10331006;28;20287;-72
2020/12/01 14:32:43;;;;;;;3.17;1.20;;;15.30;99.90;;;;;;10331641;28;20202;-71
2020/12/01 14:37:46;;;;;;;4.63;2.97;;;15.30;99.90;;;;;;10331571;28;20230;-71
2020/12/01 14:42:49;;;;;;;0.50;0.50;;;15.30;99.90;;;;;;10330877;28;20195;-73
2020/12/01 14:48:08;;;;;;;11.17;0.93;;;15.10;99.90;;;;;;10330758;28;20667;-72
2020/12/01 14:53:18;;;;;;;0.63;0.47;;;15.10;99.90;;;;;;10330749;28;20198;-71
2020/12/01 14:59:03;;;;;;;0.20;0.20;;;15.10;99.90;;;;;;10330705;28;20282;-71
2020/12/01 15:04:31;;;;;;;0.40;0.40;;;15.10;99.90;;;;;;10232343;28;20203;-72
2020/12/01 15:10:08;;;;;;;0.73;0.63;;;14.80;99.90;;;;;;10330021;28;20226;-74
2020/12/01 15:15:17;;;;;;;0.70;0.70;;;14.50;99.90;;;;;;10325082;28;20208;-74
2020/12/01 15:20:22;;;;;;;0.60;0.40;;;14.40;99.90;;;;;;10329612;28;20203;-72
2020/12/01 15:25:29;;;;;;;2.10;0.37;;;14.20;99.90;;;;;;10328208;28;20195;-71
2020/12/01 15:30:33;;;;;;;0.20;0.10;;;14.20;99.90;;;;;;10328366;28;20207;-72
2020/12/01 15:35:38;;;;;;;0.40;0.40;;;14.10;99.90;;;;;;10360158;28;20679;-68
2020/12/01 15:40:47;;;;;;;1.77;1.07;;;13.90;99.90;;;;;;10351319;28;20541;-71
2020/12/01 15:45:51;;;;;;;0.30;0.30;;;13.70;99.90;;;;;;10368509;28;20281;-71
2020/12/01 15:51:03;;;;;;;1.33;1.17;;;13.70;99.90;;;;;;10368534;28;20238;-72
2020/12/01 15:56:24;;;;;;;0.57;0.53;;;13.70;99.90;;;;;;10350961;28;20288;-72
2020/12/01 16:01:40;;;;;;;1.00;1.00;;;13.50;99.90;;;;;;10368224;28;20199;-72
2020/12/01 16:07:10;;;;;;;0.30;0.30;;;13.50;99.90;;;;;;10367182;28;20281;-69
2020/12/01 16:12:39;;;;;;;1.43;0.90;;;13.70;99.90;;;;;;10368053;28;20278;-72
2020/12/01 16:17:47;;;;;;;1.10;0.83;;;13.60;99.90;;;;;;10312122;28;20227;-70
2020/12/01 16:22:52;;;;;;;1.00;0.93;;;13.50;99.90;;;;;;10309795;28;20278;-70
2020/12/01 16:28:11;;;;;;;0.20;0.13;;;13.40;99.90;;;;;;10321683;28;20250;-72
2020/12/01 16:33:17;;;;;;;0.27;0.20;;;13.30;99.90;;;;;;10321127;28;20200;-70
2020/12/01 16:38:41;;;;;;;2.13;1.17;;;13.20;99.90;;;;;;10315964;28;20678;-66
2020/12/01 16:44:08;;;;;;;1.87;1.43;;;13.20;99.90;;;;;;10310672;28;20655;-74
2020/12/01 16:49:44;;;;;;;3.30;2.10;;;13.20;99.90;;;;;;10290431;28;20742;-71
2020/12/01 16:55:08;;;;;;;3.40;1.43;;;13.20;99.90;;;;;;10321023;28;20286;-71
2020/12/01 17:00:25;;;;;;;0.27;0.27;;;13.10;99.90;;;;;;10315714;28;20257;-71
2020/12/01 17:05:41;;;;;;;0.50;0.40;;;13.30;99.90;;;;;;10321784;28;20203;-70
2020/12/01 17:10:48;;;;;;;4.77;1.00;;;13.30;99.90;;;;;;10322240;28;20642;-70
2020/12/01 17:16:30;;;;;;;0.77;0.70;;;13.20;99.90;;;;;;10321611;28;20239;-71
2020/12/01 17:21:36;;;;;;;0.97;0.87;;;13.20;99.90;;;;;;10321519;28;20241;-71
2020/12/01 17:26:42;;;;;;;0.57;0.40;;;13.20;99.90;;;;;;10321674;28;20545;-73
2020/12/01 17:31:47;;;;;;;2.40;1.27;;;13.20;99.90;;;;;;10325529;28;20202;-74
2020/12/01 17:36:56;;;;;;;4.00;0.87;;;13.00;99.90;;;;;;10328708;28;20301;-72
2020/12/01 17:42:09;;;;;;;0.50;0.50;;;12.90;99.90;;;;;;10333486;28;20196;-71
2020/12/01 17:47:22;;;;;;;1.50;1.23;;;13.00;99.90;;;;;;10322387;28;20206;-70
2020/12/01 17:52:35;;;;;;;3.23;1.37;;;12.90;99.90;;;;;;10324400;28;20215;-71
2020/12/01 17:57:40;;;;;;;0.63;0.50;;;12.90;99.90;;;;;;10328944;28;20258;-70
2020/12/01 18:02:45;;;;;;;1.80;0.73;;;12.90;99.90;;;;;;10328063;28;20703;-70
2020/12/01 18:08:01;;;;;;;0.40;0.40;;;12.90;99.90;;;;;;10327425;28;20612;-69
2020/12/01 18:13:09;;;;;;;2.57;0.60;;;12.70;99.90;;;;;;10326270;28;20199;-74
2020/12/01 18:18:37;;;;;;;1.00;0.70;;;12.80;99.90;;;;;;10323362;28;20306;-70
2020/12/01 18:24:17;;;;;;;0.40;0.40;;;12.80;99.90;;;;;;10318943;28;20610;-70
2020/12/01 18:29:28;;;;;;;0.73;0.60;;;12.70;99.90;;;;;;10327439;28;20200;-71
2020/12/01 18:34:42;;;;;;;0.20;0.20;;;12.60;99.90;;;;;;10336153;28;20322;-71
2020/12/01 18:39:49;;;;;;;1.33;0.90;;;12.60;99.90;;;;;;10308819;28;20655;-74
2020/12/01 18:44:55;;;;;;;8.13;1.30;;;12.50;99.90;;;;;;10317824;28;20192;-73
2020/12/01 18:49:59;;;;;;;0.20;0.20;;;12.50;99.90;;;;;;10326019;28;20386;-71
2020/12/01 18:55:03;;;;;;;0.60;0.60;;;12.70;99.90;;;;;;10324323;28;20230;-72
2020/12/01 19:00:08;;;;;;;0.63;0.63;;;12.70;99.90;;;;;;10326563;28;20223;-72
2020/12/01 19:05:10;;;;;;;3.60;0.97;;;12.60;99.90;;;;;;10326204;28;20575;-72
2020/12/01 19:10:14;;;;;;;1.97;1.53;;;12.70;99.90;;;;;;10325404;28;20426;-71
2020/12/01 19:15:16;;;;;;;1.50;1.20;;;12.70;99.90;;;;;;10331111;28;20191;-71
2020/12/01 19:20:19;;;;;;;3.03;2.00;;;12.70;99.90;;;;;;10324506;28;20230;-71
2020/12/01 19:25:22;;;;;;;1.13;1.03;;;12.70;99.90;;;;;;10325720;28;20198;-72
2020/12/01 19:30:25;;;;;;;0.73;0.73;;;12.80;99.90;;;;;;10353910;28;20195;-72
2020/12/01 19:35:28;;;;;;;3.90;2.23;;;12.80;99.90;;;;;;10323620;28;20335;-71
2020/12/01 19:40:33;;;;;;;2.10;1.20;;;12.90;99.90;;;;;;10324293;28;20255;-72
2020/12/01 19:45:36;;;;;;;0.20;0.20;;;12.80;99.90;;;;;;10326901;28;20282;-72
2020/12/01 19:50:39;;;;;;;1.63;1.53;;;12.80;99.90;;;;;;10327883;28;20266;-71
2020/12/01 19:55:42;;;;;;;1.90;1.80;;;12.90;99.90;;;;;;10326230;28;20215;-74
2020/12/01 20:00:45;;;;;;;1.70;1.60;;;12.70;99.90;;;;;;10326381;28;20325;-71
2020/12/01 20:05:47;;;;;;;1.80;1.50;;;12.70;99.90;;;;;;10327665;28;20601;-71
2020/12/01 20:10:51;;;;;;;1.50;0.87;;;12.80;99.90;;;;;;10327036;28;20204;-71
2020/12/01 20:15:53;;;;;;;1.63;1.53;;;12.80;99.90;;;;;;10325705;28;20200;-72
2020/12/01 20:20:57;;;;;;;3.53;2.30;;;13.10;99.90;;;;;;10325339;28;20267;-70
2020/12/01 20:26:03;;;;;;;4.40;3.00;;;13.40;99.90;;;;;;10325482;28;20233;-71
2020/12/01 20:31:06;;;;;;;2.57;2.37;;;13.50;99.90;;;;;;10325172;28;20200;-71
2020/12/01 20:36:42;;;;;;;1.70;1.60;;;13.50;99.90;;;;;;10326248;28;20215;-70
2020/12/01 20:41:46;;;;;;;0.93;0.93;;;13.60;99.90;;;;;;10325661;28;20191;-71
2020/12/01 20:46:48;;;;;;;3.93;1.83;;;13.50;99.90;;;;;;10330264;28;20278;-72
2020/12/01 20:51:52;;;;;;;7.77;1.57;;;13.50;99.90;;;;;;10325296;28;20274;-72
2020/12/01 20:56:55;;;;;;;1.10;0.83;;;13.50;99.90;;;;;;10325210;28;20633;-72
2020/12/01 21:01:59;;;;;;;0.40;0.40;;;13.50;99.90;;;;;;10325291;28;20290;-73
2020/12/01 21:07:01;;;;;;;2.27;1.57;;;13.60;99.90;;;;;;10313125;28;20621;-70
2020/12/01 21:12:09;;;;;;;1.67;1.37;;;13.50;99.90;;;;;;10315911;28;20286;-72
2020/12/01 21:17:14;;;;;;;3.07;2.43;;;13.40;99.90;;;;;;10332685;28;20722;-70
2020/12/01 21:22:22;;;;;;;0.77;0.77;;;13.50;99.90;;;;;;10332995;28;20200;-72
2020/12/01 21:27:35;;;;;;;2.40;1.33;;;13.40;99.90;;;;;;10333422;28;20614;-73
2020/12/01 21:32:44;;;;;;;1.20;1.07;;;13.20;99.90;;;;;;10333232;28;20223;-71
2020/12/01 21:37:50;;;;;;;4.83;1.53;;;12.90;99.90;;;;;;10334485;28;20219;-72
2020/12/01 21:43:22;;;;;;;2.27;1.83;;;12.80;99.90;;;;;;10315139;28;20498;-72
2020/12/01 21:48:25;;;;;;;2.20;1.93;;;12.80;99.90;;;;;;10323775;28;20219;-73
2020/12/01 21:53:47;;;;;;;1.90;1.07;;;12.70;99.90;;;;;;10339831;28;20797;-71
2020/12/01 21:59:40;;;;;;;1.23;0.87;;;13.00;99.90;;;;;;10334773;28;20231;-70
2020/12/01 22:05:11;;;;;;;1.03;0.70;;;12.80;99.90;;;;;;10333145;28;20196;-70
2020/12/01 22:10:24;;;;;;;1.03;0.97;;;12.40;99.90;;;;;;10333079;28;20724;-70
2020/12/01 22:15:33;;;;;;;0.50;0.50;;;12.30;99.90;;;;;;10333233;28;20702;-69
2020/12/01 22:20:44;;;;;;;1.67;1.57;;;12.10;99.90;;;;;;10333081;28;20251;-69
2020/12/01 22:25:51;;;;;;;0.40;0.30;;;12.00;99.90;;;;;;10332635;28;20199;-70
2020/12/01 22:31:25;;;;;;;0.20;0.20;;;12.00;99.90;;;;;;10314993;28;20195;-69
2020/12/01 22:36:31;;;;;;;0.50;0.50;;;12.10;99.90;;;;;;10291673;28;20216;-70
2020/12/01 22:41:57;;;;;;;1.83;1.07;;;12.00;99.90;;;;;;10291238;28;20557;-70
2020/12/01 22:47:19;;;;;;;0.90;0.90;;;12.00;99.90;;;;;;10288093;28;20284;-70
2020/12/01 22:52:46;;;;;;;0.57;0.57;;;12.00;99.90;;;;;;10290580;28;20228;-70
2020/12/01 22:57:56;;;;;;;0.67;0.60;;;12.00;99.90;;;;;;10291087;28;20314;-69
2020/12/01 23:03:02;;;;;;;0.20;0.20;;;12.00;99.90;;;;;;10290372;28;20279;-70
2020/12/01 23:08:18;;;;;;;0.40;0.33;;;12.00;99.90;;;;;;10290263;28;20366;-70
2020/12/01 23:13:30;;;;;;;0.47;0.47;;;12.00;99.90;;;;;;10289835;28;20246;-69
2020/12/01 23:18:34;;;;;;;4.33;1.10;;;12.00;99.90;;;;;;10290004;28;20255;-69
2020/12/01 23:23:36;;;;;;;0.33;0.30;;;12.00;99.90;;;;;;10272385;28;20292;-70
2020/12/01 23:28:40;;;;;;;0.40;0.30;;;12.00;99.90;;;;;;10291037;28;20227;-70
2020/12/01 23:33:44;;;;;;;1.37;1.27;;;12.00;99.90;;;;;;10305266;28;20222;-70
2020/12/01 23:38:49;;;;;;;0.40;0.40;;;12.00;99.90;;;;;;10329549;28;20223;-69
2020/12/01 23:44:09;;;;;;;0.30;0.30;;;12.00;99.90;;;;;;10312197;28;20205;-70
2020/12/01 23:49:22;;;;;;;0.63;0.63;;;11.80;99.90;;;;;;10329079;28;20581;-69
2020/12/01 23:54:25;;;;;;;0.67;0.67;;;11.70;99.90;;;;;;10311851;28;20199;-69
2020/12/01 23:59:28;;;;;;;1.53;0.80;;;11.70;99.90;;;;;;10328467;28;20577;-69
